• Join FlightAware (Why Join?)
  • Login
  • US Flag 
03:51PM EDT


 

Airport Tracker/Info


-or-


 

Live Flight TrackerFlight Track Log ✈ AAL2360 ✈ 08-Jun-2013 ✈ KDFW - KORD

Flight Track Log - Related Links

Times and Time Zones

All times are in EDT time to prevent confusion due to time zone crossing. See the AAL2360 flight status page for this flight to view local times or setup timezone preferences in your user account.

Time Position Orientation Groundspeed Altitude Reporting Facility
EDT Latitude Longitude Course Direction KTS MPH feet Rate Location/Type
03:34PM 32.8833 -97.0333 347° North 170 196 1,200  Level Dallas / Fort Worth TRACON
03:35PM 32.8167 -97.0000 157° South 236 272 3,500 1,980 Climbing Dallas / Fort Worth TRACON
03:36PM 32.7667 -96.9667 151° Southeast 264 304 5,600 2,400 Climbing Dallas / Fort Worth TRACON
03:37PM 32.8605 -96.8000 North  Level FlightAware Approximate
03:37PM 32.7667 -96.8833 90° East 292 336 8,100  Level Dallas / Fort Worth TRACON
03:38PM 32.9823 -96.8000 North  Level FlightAware Approximate
03:38PM 32.8167 -96.8167 48° Northeast 319 367 10,200  Level Dallas / Fort Worth TRACON
03:39PM 33.0987 -96.8425 347° North  Level FlightAware Approximate
03:40PM 33.0283 -96.8236 358° North 368 423 15,200  Level Fort Worth Center
03:41PM 33.1306 -96.8553 345° North 374 430 17,400 1,920 Climbing Fort Worth Center
03:42PM 33.2247 -96.8869 344° North 385 443 19,100 1,800 Climbing Fort Worth Center
03:43PM 33.3522 -96.9286 345° North 410 472 21,100 1,680 Climbing Fort Worth Center
03:44PM 33.4544 -96.8856 19° North 422 486 22,500 1,680 Climbing Fort Worth Center
03:45PM 33.5708 -96.8250 23° Northeast 443 510 24,500 1,680 Climbing Fort Worth Center
03:46PM 33.6917 -96.7719 20° North 450 518 25,900 1,500 Climbing Fort Worth Center
03:47PM 33.8125 -96.7161 21° North 455 524 27,600 1,560 Climbing Fort Worth Center
03:48PM 33.9333 -96.6650 19° North 455 524 29,100 1,440 Climbing Fort Worth Center
03:49PM 34.0561 -96.6114 20° North 455 524 30,500 1,440 Climbing Fort Worth Center
03:50PM 34.1808 -96.5550 21° North 450 518 32,000 1,200 Climbing Fort Worth Center
03:51PM 34.3017 -96.5083 18° North 450 518 32,900 480 Climbing Fort Worth Center
03:52PM 34.4200 -96.4469 23° Northeast 450 518 33,000  Climbing Fort Worth Center
03:53PM 34.5428 -96.3925 20° North 450 518 33,000  Level Fort Worth Center
03:54PM 34.6633 -96.3381 20° North 450 518 33,000  Level Fort Worth Center
03:55PM 34.7858 -96.2808 21° North 457 526 33,000  Level Fort Worth Center
03:56PM 34.9083 -96.2261 20° North 462 532 33,000  Level Fort Worth Center
03:57PM 35.0267 -96.1711 21° North 462 532 33,000  Level Fort Worth Center
03:58PM 35.1472 -96.1161 20° North 462 532 33,000  Level Fort Worth Center
03:59PM 35.2697 -96.0608 20° North 468 539 33,000  Level Fort Worth Center
04:01PM 35.3992 -96.0003 21° North 462 532 33,000  Level Kansas City Center
04:02PM 35.5200 -95.9453 20° North 463 533 33,000  Level Kansas City Center
04:03PM 35.6408 -95.8889 21° North 462 532 33,000  Level Kansas City Center
04:04PM 35.7636 -95.7772 36° Northeast 460 529 33,000  Level Kansas City Center
04:05PM 35.8583 -95.6667 43° Northeast 467 537 33,000  Level Kansas City Center
04:06PM 35.9539 -95.5606 42° Northeast 463 533 33,000  Level Kansas City Center
04:07PM 36.0508 -95.4542 42° Northeast 467 537 33,000  Level Kansas City Center
04:08PM 36.1517 -95.3414 42° Northeast 464 534 33,000  Level Kansas City Center
04:09PM 36.2481 -95.2325 42° Northeast 467 537 33,000  Level Kansas City Center
04:10PM 36.3447 -95.1258 42° Northeast 467 537 33,000  Level Kansas City Center
04:11PM 36.4500 -95.0075 42° Northeast 466 536 33,000  Level Kansas City Center
04:12PM 36.5447 -94.9014 42° Northeast 462 532 33,000  Level Kansas City Center
04:13PM 36.6394 -94.7947 42° Northeast 461 531 33,000  Level Kansas City Center
04:14PM 36.7347 -94.6872 42° Northeast 462 532 33,000  Level Kansas City Center
04:15PM 36.8306 -94.5772 43° Northeast 465 535 33,000  Level Kansas City Center
04:16PM 36.9264 -94.4681 42° Northeast 466 536 33,000  Level Kansas City Center
04:17PM 37.0406 -94.3372 42° Northeast 464 534 33,000  Level Kansas City Center
04:18PM 37.1353 -94.2261 43° Northeast 465 535 33,000  Level Kansas City Center
04:19PM 37.2300 -94.1161 43° Northeast 464 534 33,000  Level Kansas City Center
04:20PM 37.3164 -94.0089 45° Northeast 463 533 33,000  Level Kansas City Center
04:21PM 37.3950 -93.8794 53° Northeast 465 535 33,000  Level Kansas City Center
04:22PM 37.4739 -93.7519 52° Northeast 463 533 33,000  Level Kansas City Center
04:23PM 37.5758 -93.6061 49° Northeast 461 531 33,000  Level Kansas City Center
04:24PM 37.6733 -93.5000 41° Northeast 459 528 33,000  Level Kansas City Center
04:25PM 37.7686 -93.3906 42° Northeast 459 528 33,000  Level Kansas City Center
04:26PM 37.8633 -93.2811 42° Northeast 460 529 33,000  Level Kansas City Center
04:27PM 37.9594 -93.1706 42° Northeast 462 532 33,000  Level Kansas City Center
04:28PM 38.0556 -93.0597 42° Northeast 462 532 33,000  Level Kansas City Center
04:29PM 38.1519 -92.9492 42° Northeast 462 532 33,000  Level Kansas City Center
04:30PM 38.2475 -92.8378 42° Northeast 462 532 33,000  Level Kansas City Center
04:31PM 38.3431 -92.7261 42° Northeast 460 529 33,000  Level Kansas City Center
04:32PM 38.4364 -92.6144 43° Northeast 457 526 33,000  Level Kansas City Center
04:33PM 38.5314 -92.5033 42° Northeast 458 527 33,000  Level Kansas City Center
04:34PM 38.6442 -92.3686 43° Northeast 458 527 33,000  Level Kansas City Center
04:36PM 38.7383 -92.2572 43° Northeast 458 527 33,000  Level Kansas City Center
04:37PM 38.8317 -92.1461 43° Northeast 456 525 33,000  Level Kansas City Center
04:38PM 38.9247 -92.0344 43° Northeast 456 525 33,000  Level Kansas City Center
04:39PM 39.0214 -91.9219 42° Northeast 463 533 33,000  Level Kansas City Center
04:40PM 39.1247 -91.8178 38° Northeast 470 541 33,000  Level Kansas City Center
04:41PM 39.2267 -91.7131 38° Northeast 468 539 33,000  Level Kansas City Center
04:42PM 39.3403 -91.5922 39° Northeast 474 545 33,000  Level Kansas City Center
04:43PM 39.4419 -91.4847 39° Northeast 474 545 33,000  Level Kansas City Center
04:44PM 39.5372 -91.3819 40° Northeast 470 541 33,000  Level Kansas City Center
04:45PM 39.6419 -91.2700 39° Northeast 468 539 33,000  Level Kansas City Center
04:46PM 39.7431 -91.1614 40° Northeast 468 539 33,000  Level Kansas City Center
04:47PM 39.8567 -91.0378 40° Northeast 473 544 33,000  Level Kansas City Center
04:48PM 39.9628 -90.9231 40° Northeast 477 549 33,000 -540 Level Kansas City Center
04:49PM 40.0625 -90.8117 41° Northeast 475 547 32,000 -1,020 Descending Kansas City Center
04:50PM 40.1642 -90.7028 39° Northeast 473 544 30,900 -1,080 Descending Kansas City Center
04:51PM 40.2653 -90.5919 40° Northeast 472 543 29,800 -960 Descending Kansas City Center
04:52PM 40.3678 -90.4772 40° Northeast 479 551 29,000 -600 Descending Kansas City Center
04:52PM 40.4100 -90.4314 40° Northeast 485 558 29,000  Level Chicago Center
04:53PM 40.5356 -90.2931 40° Northeast 489 563 29,000  Level Chicago Center
04:54PM 40.6383 -90.1736 41° Northeast 486 559 29,000  Level Chicago Center
04:55PM 40.7400 -90.0558 41° Northeast 486 559 29,000 -240 Level Chicago Center
04:57PM 40.8506 -89.9422 38° Northeast 496 571 28,600 -720 Descending Chicago Center
04:58PM 40.9511 -89.8236 42° Northeast 489 563 27,600 -1,320 Descending Chicago Center
04:59PM 41.0664 -89.6944 40° Northeast 499 574 25,900 -1,800 Descending Chicago Center
05:00PM 41.1633 -89.5722 43° Northeast 482 555 24,000 -1,440 Descending Chicago Center
05:01PM 41.2300 -89.4153 61° Northeast 484 557 23,000 -1,740 Descending Chicago Center
05:02PM 41.2925 -89.2600 62° Northeast 477 549 20,400 -2,700 Descending Chicago Center
05:03PM 41.3564 -89.0975 62° Northeast 454 522 17,500 -2,640 Descending Chicago Center
05:04PM 41.4136 -88.9544 62° Northeast 441 507 15,000 -2,580 Descending Chicago Center
05:05PM 41.4686 -88.8158 62° Northeast 427 491 12,200 -1,980 Descending Chicago Center
05:06PM 41.5292 -88.6625 62° Northeast 389 448 11,000 -540 Descending Chicago Center
05:07PM 41.5692 -88.5600 62° Northeast 320 368 11,100 -720 Climbing Chicago Center
05:08PM 41.6119 -88.4600 60° Northeast 311 358 9,600 -1,440 Descending Chicago Center
05:09PM 41.6636 -88.3742 51° Northeast 298 343 8,200 -1,320 Descending Chicago Center
05:10PM 41.7417 -88.3556 10° North 294 338 7,000 -660 Descending Chicago Center
05:11PM 41.8222 -88.3461 North 290 334 6,900 -780 Descending Chicago Center
05:12PM 41.8997 -88.3361 North 282 325 5,500 -1,260 Descending Chicago Center
05:13PM 41.9536 -88.2717 42° Northeast 242 278 4,400 -840 Descending Chicago Center
05:14PM 41.9681 -88.1897 77° East 242 278 3,900 -540 Descending Chicago Center